createdAt,value
2023-03-18T00:01:24.887Z,3.68
2023-03-18T00:03:57.212Z,3.68
2023-03-18T00:06:25.527Z,3.68
2023-03-18T00:08:53.604Z,3.69
2023-03-18T00:11:22.181Z,3.71
2023-03-18T00:13:50.223Z,3.71
2023-03-18T00:16:18.332Z,3.71
2023-03-18T00:18:48.070Z,3.72
2023-03-18T00:21:17.026Z,3.72
2023-03-18T00:23:45.045Z,3.74
2023-03-18T00:26:13.285Z,3.74
2023-03-18T00:28:42.272Z,3.77
2023-03-18T00:31:11.716Z,3.80
2023-03-18T00:33:40.754Z,3.82
2023-03-18T00:36:10.395Z,3.83
2023-03-18T00:38:45.971Z,3.84
2023-03-18T00:41:16.256Z,3.80
2023-03-18T00:43:46.900Z,3.79
2023-03-18T00:46:34.582Z,3.77
2023-03-18T00:49:05.514Z,3.76
2023-03-18T00:51:35.556Z,3.75
2023-03-18T00:54:07.258Z,3.76
2023-03-18T00:56:36.848Z,3.75
2023-03-18T00:59:06.097Z,3.74
2023-03-18T01:01:34.282Z,3.78
2023-03-18T01:04:02.650Z,3.81
2023-03-18T01:06:34.404Z,3.82
2023-03-18T01:09:02.926Z,3.85
2023-03-18T01:11:31.537Z,3.86
2023-03-18T01:14:00.634Z,3.82
2023-03-18T01:16:29.848Z,3.78
2023-03-18T01:18:58.497Z,3.74
2023-03-18T01:21:26.864Z,3.71
2023-03-18T01:24:00.795Z,3.71
2023-03-18T01:26:29.515Z,3.73
2023-03-18T01:28:59.474Z,3.73
2023-03-18T01:31:28.669Z,3.70
2023-03-18T01:33:59.799Z,3.69
2023-03-18T01:36:29.804Z,3.64
2023-03-18T01:39:07.169Z,3.64
2023-03-18T01:41:36.696Z,3.65
2023-03-18T01:44:17.617Z,3.65
2023-03-18T01:46:47.556Z,3.65
2023-03-18T01:49:32.378Z,3.63
2023-03-18T01:52:07.430Z,3.59
2023-03-18T01:54:40.410Z,3.58
2023-03-18T01:57:14.619Z,3.60
2023-03-18T01:59:43.584Z,3.59
2023-03-18T02:02:14.098Z,3.58
2023-03-18T02:04:44.808Z,3.59
2023-03-18T02:07:21.888Z,3.60
2023-03-18T02:09:50.783Z,3.58
2023-03-18T02:12:24.692Z,3.56
2023-03-18T02:14:53.351Z,3.50
2023-03-18T02:17:24.742Z,3.45
2023-03-18T02:20:14.674Z,3.44
2023-03-18T02:22:45.756Z,3.41
2023-03-18T02:25:22.042Z,3.37
2023-03-18T02:27:53.716Z,3.34
2023-03-18T02:30:25.946Z,3.32
2023-03-18T02:32:56.049Z,3.26
2023-03-18T02:35:27.734Z,3.22
2023-03-18T02:37:56.040Z,3.19
2023-03-18T02:40:27.922Z,3.15
2023-03-18T02:42:57.371Z,3.13
2023-03-18T02:45:50.825Z,3.12
2023-03-18T02:48:20.214Z,3.11
2023-03-18T02:50:48.612Z,3.09
2023-03-18T02:53:21.423Z,3.10
2023-03-18T02:55:49.336Z,3.11
2023-03-18T02:58:17.502Z,3.11
2023-03-18T03:00:46.803Z,3.11
2023-03-18T03:03:15.631Z,3.08
2023-03-18T03:05:45.861Z,3.06
2023-03-18T03:08:15.421Z,3.04
2023-03-18T03:10:46.588Z,3.02
2023-03-18T03:13:15.742Z,3.00
2023-03-18T03:15:44.459Z,3.01
2023-03-18T03:18:13.798Z,3.04
2023-03-18T03:20:42.332Z,3.07
2023-03-18T03:23:12.538Z,3.09
2023-03-18T03:25:42.022Z,3.10
2023-03-18T03:28:12.424Z,3.11
2023-03-18T03:30:40.564Z,3.13
2023-03-18T03:33:10.142Z,3.15
2023-03-18T03:35:39.088Z,3.16
2023-03-18T03:38:07.552Z,3.18
2023-03-18T03:40:35.786Z,3.22
2023-03-18T03:43:04.170Z,3.26
2023-03-18T03:45:34.663Z,3.30
2023-03-18T03:48:04.154Z,3.35
2023-03-18T03:50:33.972Z,3.38
2023-03-18T03:53:02.668Z,3.40
2023-03-18T03:55:30.707Z,3.40
2023-03-18T03:57:58.694Z,3.41
2023-03-18T04:00:27.124Z,3.45
2023-03-18T04:02:56.683Z,3.49
2023-03-18T04:05:25.852Z,3.47
2023-03-18T04:07:54.216Z,3.48
2023-03-18T04:10:31.133Z,3.45
2023-03-18T04:13:01.220Z,3.40
2023-03-18T04:15:29.926Z,3.39
2023-03-18T04:18:04.957Z,3.40
2023-03-18T04:20:36.708Z,3.40
2023-03-18T04:23:06.315Z,3.41
2023-03-18T04:25:36.408Z,3.40
2023-03-18T04:28:05.134Z,3.40
2023-03-18T04:30:34.009Z,3.43
2023-03-18T04:33:06.753Z,3.45
2023-03-18T04:35:38.353Z,3.47
2023-03-18T04:38:06.700Z,3.41
2023-03-18T04:40:34.921Z,3.39
2023-03-18T04:43:04.462Z,3.44
2023-03-18T04:45:32.714Z,3.45
2023-03-18T04:48:04.270Z,3.44
2023-03-18T04:50:35.883Z,3.45
2023-03-18T04:53:04.854Z,3.45
2023-03-18T04:55:34.374Z,3.43
2023-03-18T04:58:03.711Z,3.40
2023-03-18T05:00:34.078Z,3.40
2023-03-18T05:03:13.344Z,3.38
2023-03-18T05:05:44.156Z,3.34
2023-03-18T05:08:15.431Z,3.31
2023-03-18T05:10:43.539Z,3.32
2023-03-18T05:13:17.550Z,3.33
2023-03-18T05:15:46.125Z,3.33
2023-03-18T05:18:14.247Z,3.36
2023-03-18T05:20:43.011Z,3.35
2023-03-18T05:23:14.838Z,3.36
2023-03-18T05:25:51.605Z,3.41
2023-03-18T05:28:21.816Z,3.43
2023-03-18T05:31:01.393Z,3.45
2023-03-18T05:33:38.195Z,3.50
2023-03-18T05:36:07.818Z,3.53
2023-03-18T05:38:43.294Z,3.59
2023-03-18T05:41:11.321Z,3.61
2023-03-18T05:43:40.906Z,3.61
2023-03-18T05:46:08.782Z,3.62
2023-03-18T05:48:53.435Z,3.63
2023-03-18T05:51:22.607Z,3.60
2023-03-18T05:53:51.372Z,3.60
2023-03-18T05:56:28.384Z,3.65
2023-03-18T05:58:59.912Z,3.65
2023-03-18T06:01:37.493Z,3.68
2023-03-18T06:04:06.612Z,3.68
2023-03-18T06:06:37.163Z,3.62
2023-03-18T06:09:10.845Z,3.63
2023-03-18T06:11:40.155Z,3.69
2023-03-18T06:14:08.171Z,3.69
2023-03-18T06:16:41.978Z,3.68
2023-03-18T06:19:13.308Z,3.68
2023-03-18T06:21:42.185Z,3.72
2023-03-18T06:24:11.411Z,3.71
2023-03-18T06:26:41.537Z,3.67
2023-03-18T06:29:10.791Z,3.74
2023-03-18T06:31:39.778Z,3.81
2023-03-18T06:34:13.100Z,3.82
2023-03-18T06:36:41.607Z,3.82
2023-03-18T06:39:14.114Z,3.81
2023-03-18T06:41:42.294Z,3.83
2023-03-18T06:44:42.874Z,3.85
2023-03-18T06:47:20.419Z,3.87
2023-03-18T06:49:53.633Z,3.89
2023-03-18T06:52:28.390Z,3.90
2023-03-18T06:55:00.569Z,3.85
2023-03-18T06:57:29.037Z,3.84
2023-03-18T07:00:05.259Z,3.79
2023-03-18T07:02:36.370Z,3.77
2023-03-18T07:05:06.086Z,3.77
2023-03-18T07:07:37.829Z,3.81
2023-03-18T07:10:07.281Z,3.84
2023-03-18T07:12:40.399Z,3.84
2023-03-18T07:15:09.563Z,3.84
2023-03-18T07:17:38.295Z,3.88
2023-03-18T07:20:12.354Z,3.92
2023-03-18T07:22:43.917Z,3.93
2023-03-18T07:25:11.702Z,3.93
2023-03-18T07:27:42.714Z,3.91
2023-03-18T07:30:12.044Z,3.86
2023-03-18T07:32:46.204Z,3.83
2023-03-18T07:35:14.838Z,3.84
2023-03-18T07:37:42.804Z,3.86
2023-03-18T07:40:11.868Z,3.92
2023-03-18T07:42:41.175Z,3.98
2023-03-18T07:45:10.123Z,4.01
2023-03-18T07:47:39.023Z,4.06
2023-03-18T07:50:07.952Z,4.16
2023-03-18T07:52:39.156Z,4.25
2023-03-18T07:55:09.254Z,4.28
2023-03-18T07:57:40.950Z,4.28
2023-03-18T08:00:11.563Z,4.29
2023-03-18T08:02:42.691Z,4.32
2023-03-18T08:05:11.517Z,4.36
2023-03-18T08:07:40.219Z,4.43
2023-03-18T08:10:09.828Z,4.48
2023-03-18T08:12:51.695Z,4.51
2023-03-18T08:15:22.074Z,4.51
2023-03-18T08:17:53.973Z,4.52
2023-03-18T08:20:23.228Z,4.51
2023-03-18T08:22:51.615Z,4.52
2023-03-18T08:25:23.677Z,4.51
2023-03-18T08:27:52.513Z,4.52
2023-03-18T08:30:20.646Z,4.55
2023-03-18T08:32:49.296Z,4.56
2023-03-18T08:35:19.108Z,4.53
2023-03-18T08:37:51.650Z,4.52
2023-03-18T08:40:20.513Z,4.54
2023-03-18T08:42:48.512Z,4.59
2023-03-18T08:45:17.113Z,4.62
2023-03-18T08:47:45.289Z,4.62
2023-03-18T08:50:14.470Z,4.61
2023-03-18T08:52:43.392Z,4.59
2023-03-18T08:55:11.320Z,4.59
2023-03-18T08:57:39.470Z,4.59
2023-03-18T09:00:08.459Z,4.60
2023-03-18T09:02:37.429Z,4.62
2023-03-18T09:05:06.041Z,4.67
2023-03-18T09:07:34.183Z,4.77
2023-03-18T09:10:02.577Z,4.82
2023-03-18T09:12:32.279Z,4.80
2023-03-18T09:15:00.157Z,4.77
2023-03-18T09:17:45.259Z,4.82
2023-03-18T09:20:17.084Z,4.90
2023-03-18T09:22:46.609Z,4.94
2023-03-18T09:25:14.465Z,4.95
2023-03-18T09:27:42.316Z,4.95
2023-03-18T09:30:11.547Z,4.92
2023-03-18T09:32:39.896Z,4.91
2023-03-18T09:35:12.569Z,4.93
2023-03-18T09:37:41.063Z,4.99
2023-03-18T09:40:15.914Z,5.05
2023-03-18T09:42:55.472Z,5.13
2023-03-18T09:45:49.767Z,5.14
2023-03-18T09:48:37.302Z,5.18
2023-03-18T09:51:31.689Z,5.22
2023-03-18T09:54:11.093Z,5.30
2023-03-18T09:56:40.170Z,5.35
2023-03-18T09:59:23.133Z,5.41
2023-03-18T10:01:54.520Z,5.50
2023-03-18T10:04:38.878Z,5.54
2023-03-18T10:07:20.590Z,5.54
2023-03-18T10:09:52.213Z,5.50
2023-03-18T10:12:31.929Z,5.47
2023-03-18T10:15:17.930Z,5.52
2023-03-18T10:18:00.231Z,5.67
2023-03-18T10:20:37.354Z,5.81
2023-03-18T10:23:25.249Z,5.87
2023-03-18T10:25:54.728Z,5.96
2023-03-18T10:28:38.226Z,5.95
2023-03-18T10:31:21.130Z,5.91
2023-03-18T10:34:01.456Z,5.96
2023-03-18T10:36:42.636Z,5.93
2023-03-18T10:39:13.875Z,5.85
2023-03-18T10:41:43.639Z,5.76
2023-03-18T10:44:19.639Z,5.68
2023-03-18T10:46:48.276Z,5.63
2023-03-18T10:49:21.244Z,5.65
2023-03-18T10:51:55.006Z,5.67
2023-03-18T10:55:15.856Z,5.74
2023-03-18T10:57:44.505Z,5.67
2023-03-18T11:00:34.577Z,5.65
2023-03-18T11:03:04.296Z,5.62
2023-03-18T11:05:35.563Z,5.58
2023-03-18T11:08:06.476Z,5.65
2023-03-18T11:10:37.092Z,5.74
2023-03-18T11:13:06.408Z,5.83
2023-03-18T11:15:36.901Z,5.81
2023-03-18T11:18:05.855Z,5.73
2023-03-18T11:20:47.736Z,5.73
2023-03-18T11:23:46.056Z,5.84
2023-03-18T11:26:27.623Z,5.99
2023-03-18T11:29:05.833Z,6.13
2023-03-18T11:31:34.019Z,6.21
2023-03-18T11:34:02.387Z,6.30
2023-03-18T11:36:32.482Z,6.28
2023-03-18T11:39:04.538Z,6.22
2023-03-18T11:41:33.751Z,6.29
2023-03-18T11:44:14.305Z,6.31
2023-03-18T11:46:55.541Z,6.25
2023-03-18T11:49:23.870Z,6.19
2023-03-18T11:52:10.511Z,6.16
2023-03-18T11:54:45.943Z,6.10
2023-03-18T11:57:17.709Z,6.06
2023-03-18T12:00:19.644Z,6.08
2023-03-18T12:03:06.901Z,6.11
2023-03-18T12:06:21.307Z,6.16
2023-03-18T12:09:22.970Z,6.31
2023-03-18T12:12:04.686Z,6.46
2023-03-18T12:14:41.552Z,6.41
2023-03-18T12:17:22.516Z,6.39
2023-03-18T12:20:07.411Z,6.50
2023-03-18T12:22:50.455Z,6.64
2023-03-18T12:26:03.487Z,6.64
2023-03-18T12:28:46.691Z,6.59
2023-03-18T12:31:17.793Z,6.55
2023-03-18T12:34:11.108Z,6.55
2023-03-18T12:36:58.196Z,6.49
2023-03-18T12:39:38.120Z,6.53
2023-03-18T12:42:16.904Z,6.61
2023-03-18T12:45:09.193Z,6.65
2023-03-18T12:48:07.637Z,6.69
2023-03-18T12:50:38.392Z,6.68
2023-03-18T12:53:36.741Z,6.59
2023-03-18T12:56:09.898Z,6.55
2023-03-18T12:58:41.304Z,6.58
2023-03-18T13:01:22.299Z,6.65
2023-03-18T13:03:55.615Z,6.73
2023-03-18T13:06:59.227Z,6.75
2023-03-18T13:09:51.010Z,6.75
2023-03-18T13:12:24.216Z,6.72
2023-03-18T13:15:16.135Z,6.70
2023-03-18T13:17:45.058Z,6.67
2023-03-18T13:20:34.735Z,6.68
2023-03-18T13:23:28.174Z,6.68
2023-03-18T13:26:03.281Z,6.73
2023-03-18T13:29:01.127Z,6.78
2023-03-18T13:31:52.629Z,6.81
2023-03-18T13:35:14.617Z,6.82
2023-03-18T13:38:07.820Z,6.91
2023-03-18T13:40:42.325Z,6.97
2023-03-18T13:43:15.450Z,7.01
2023-03-18T13:45:48.194Z,6.99
2023-03-18T13:48:31.996Z,6.95
2023-03-18T13:51:00.517Z,6.91
2023-03-18T13:53:32.174Z,6.88
2023-03-18T13:56:02.031Z,6.91
2023-03-18T13:58:35.039Z,6.97
2023-03-18T14:01:16.677Z,7.03
2023-03-18T14:03:54.918Z,7.05
2023-03-18T14:06:34.509Z,7.05
2023-03-18T14:09:32.730Z,7.05
2023-03-18T14:12:04.958Z,7.01
2023-03-18T14:14:56.908Z,7.00
2023-03-18T14:17:33.831Z,7.01
2023-03-18T14:20:21.728Z,6.98
2023-03-18T14:22:51.935Z,6.95
2023-03-18T14:25:35.515Z,6.95
2023-03-18T14:28:06.731Z,7.00
2023-03-18T14:30:39.153Z,7.06
2023-03-18T14:33:22.838Z,7.08
2023-03-18T14:35:59.948Z,7.06
2023-03-18T14:38:50.930Z,7.06
2023-03-18T14:41:22.669Z,7.06
2023-03-18T14:44:17.492Z,7.06
2023-03-18T14:46:51.503Z,7.05
2023-03-18T14:49:57.982Z,7.04
2023-03-18T14:52:34.861Z,7.04
2023-03-18T14:55:29.525Z,7.06
2023-03-18T14:58:11.943Z,7.09
2023-03-18T15:00:47.389Z,7.13
2023-03-18T15:03:46.850Z,7.16
2023-03-18T15:06:23.229Z,7.16
2023-03-18T15:09:03.817Z,7.12
2023-03-18T15:11:39.865Z,7.09
2023-03-18T15:14:27.857Z,7.07
2023-03-18T15:17:00.483Z,7.06
2023-03-18T15:19:35.177Z,7.06
2023-03-18T15:22:22.132Z,7.05
2023-03-18T15:24:55.875Z,7.03
2023-03-18T15:27:36.318Z,7.00
2023-03-18T15:30:08.002Z,6.96
2023-03-18T15:32:51.930Z,6.94
2023-03-18T15:35:26.345Z,6.90
2023-03-18T15:38:21.862Z,6.85
2023-03-18T15:41:17.099Z,6.80
2023-03-18T15:43:47.568Z,6.75
2023-03-18T15:46:43.508Z,6.70
2023-03-18T15:49:14.302Z,6.63
2023-03-18T15:51:48.084Z,6.58
2023-03-18T15:54:29.569Z,6.53
2023-03-18T15:57:11.100Z,6.49
2023-03-18T15:59:41.418Z,6.43
2023-03-18T16:02:15.663Z,6.38
2023-03-18T16:04:48.791Z,6.32
2023-03-18T16:07:24.521Z,6.25
2023-03-18T16:09:57.589Z,6.15
2023-03-18T16:12:30.206Z,6.05
2023-03-18T16:15:02.750Z,5.96
2023-03-18T16:17:34.295Z,5.86
2023-03-18T16:20:47.468Z,5.78
2023-03-18T16:23:16.887Z,5.67
2023-03-18T16:26:14.724Z,5.56
2023-03-18T16:28:47.898Z,5.46
2023-03-18T16:31:37.557Z,5.36
2023-03-18T16:34:21.166Z,5.26
2023-03-18T16:36:51.305Z,5.14
2023-03-18T16:39:20.834Z,5.06
2023-03-18T16:41:49.685Z,4.98
2023-03-18T16:44:19.004Z,4.89
2023-03-18T16:46:49.749Z,4.80
2023-03-18T16:49:25.838Z,4.73
2023-03-18T16:51:55.178Z,4.65
2023-03-18T16:54:27.432Z,4.56
2023-03-18T16:56:58.266Z,4.45
2023-03-18T16:59:29.925Z,4.32
2023-03-18T17:01:58.126Z,4.22
2023-03-18T17:04:28.697Z,4.15
2023-03-18T17:06:59.728Z,4.07
2023-03-18T17:09:27.816Z,3.99
2023-03-18T17:12:00.976Z,3.91
2023-03-18T17:14:40.012Z,3.83
2023-03-18T17:17:14.118Z,3.75
2023-03-18T17:19:45.306Z,3.67
2023-03-18T17:22:24.506Z,3.59
2023-03-18T17:24:54.276Z,3.52
2023-03-18T17:27:38.988Z,3.43
2023-03-18T17:30:40.537Z,3.36
2023-03-18T17:33:20.178Z,3.30
2023-03-18T17:35:48.378Z,3.21
2023-03-18T17:38:16.365Z,3.16
2023-03-18T17:40:45.277Z,3.11
2023-03-18T17:43:27.547Z,3.04
2023-03-18T17:45:57.100Z,2.96
2023-03-18T17:48:29.133Z,2.88
2023-03-18T17:51:07.576Z,2.82
2023-03-18T17:53:42.842Z,2.75
2023-03-18T17:56:12.173Z,2.69
2023-03-18T17:58:49.412Z,2.63
2023-03-18T18:01:18.650Z,2.56
2023-03-18T18:03:47.842Z,2.51
2023-03-18T18:06:17.658Z,2.46
2023-03-18T18:08:47.085Z,2.40
2023-03-18T18:11:15.415Z,2.32
2023-03-18T18:13:43.669Z,2.27
2023-03-18T18:16:12.254Z,2.23
2023-03-18T18:18:40.476Z,2.18
2023-03-18T18:21:16.426Z,2.11
2023-03-18T18:23:47.560Z,2.07
2023-03-18T18:26:16.892Z,2.01
2023-03-18T18:28:46.433Z,1.95
2023-03-18T18:31:18.041Z,1.87
2023-03-18T18:33:50.196Z,1.81
2023-03-18T18:36:18.413Z,1.75
2023-03-18T18:38:46.818Z,1.69
2023-03-18T18:41:15.377Z,1.63
2023-03-18T18:43:45.236Z,1.59
2023-03-18T18:46:17.873Z,1.54
2023-03-18T18:48:48.113Z,1.48
2023-03-18T18:51:18.415Z,1.43
2023-03-18T18:53:46.575Z,1.38
2023-03-18T18:56:18.725Z,1.34
2023-03-18T18:58:48.736Z,1.30
2023-03-18T19:01:18.372Z,1.25
2023-03-18T19:03:47.033Z,1.23
2023-03-18T19:06:18.400Z,1.20
2023-03-18T19:08:51.325Z,1.18
2023-03-18T19:11:19.209Z,1.15
2023-03-18T19:13:51.172Z,1.13
2023-03-18T19:16:32.501Z,1.11
2023-03-18T19:19:00.736Z,1.10
2023-03-18T19:21:30.586Z,1.11
2023-03-18T19:23:58.806Z,1.12
2023-03-18T19:26:27.234Z,1.14
2023-03-18T19:28:59.668Z,1.16
2023-03-18T19:31:35.030Z,1.16
2023-03-18T19:34:09.489Z,1.17
2023-03-18T19:36:39.786Z,1.19
2023-03-18T19:39:16.047Z,1.22
2023-03-18T19:41:49.795Z,1.22
2023-03-18T19:44:21.674Z,1.23
2023-03-18T19:46:55.330Z,1.23
2023-03-18T19:49:33.662Z,1.19
2023-03-18T19:52:02.406Z,1.18
2023-03-18T19:54:36.637Z,1.16
2023-03-18T19:57:06.819Z,1.13
2023-03-18T19:59:39.166Z,1.09
2023-03-18T20:02:21.976Z,1.07
2023-03-18T20:04:54.378Z,1.06
2023-03-18T20:07:23.799Z,1.05
2023-03-18T20:09:52.285Z,1.03
2023-03-18T20:12:36.619Z,1.01
2023-03-18T20:15:22.802Z,0.97
2023-03-18T20:17:51.407Z,0.92
2023-03-18T20:20:28.940Z,0.88
2023-03-18T20:23:01.948Z,0.84
2023-03-18T20:25:42.254Z,0.80
2023-03-18T20:28:16.098Z,0.76
2023-03-18T20:30:45.346Z,0.72
2023-03-18T20:33:17.490Z,0.69
2023-03-18T20:35:52.862Z,0.66
2023-03-18T20:38:35.316Z,0.59
2023-03-18T20:41:04.084Z,0.53
2023-03-18T20:43:32.333Z,0.48
2023-03-18T20:46:05.463Z,0.44
2023-03-18T20:48:38.464Z,0.41
2023-03-18T20:51:21.273Z,0.40
2023-03-18T20:53:49.477Z,0.39
2023-03-18T20:56:21.678Z,0.37
2023-03-18T20:58:50.134Z,0.34
2023-03-18T21:01:18.513Z,0.30
2023-03-18T21:03:46.458Z,0.28
2023-03-18T21:06:15.721Z,0.27
2023-03-18T21:08:43.592Z,0.22
2023-03-18T21:11:32.718Z,0.18
2023-03-18T21:14:04.274Z,0.16
2023-03-18T21:16:34.669Z,0.13
2023-03-18T21:19:06.168Z,0.08
2023-03-18T21:21:36.674Z,0.07
2023-03-18T21:24:31.848Z,0.08
2023-03-18T21:27:05.158Z,0.07
2023-03-18T21:29:33.635Z,0.06
2023-03-18T21:32:04.399Z,0.08
2023-03-18T21:34:32.598Z,0.09
2023-03-18T21:37:09.481Z,0.11
2023-03-18T21:39:38.742Z,0.13
2023-03-18T21:42:07.162Z,0.15
2023-03-18T21:44:35.191Z,0.18
2023-03-18T21:47:03.741Z,0.21
2023-03-18T21:49:34.102Z,0.26
2023-03-18T21:52:02.586Z,0.31
2023-03-18T21:54:31.031Z,0.34
2023-03-18T21:57:00.960Z,0.39
2023-03-18T21:59:29.053Z,0.40
2023-03-18T22:02:01.214Z,0.45
2023-03-18T22:04:29.297Z,0.48
2023-03-18T22:06:57.687Z,0.50
2023-03-18T22:09:27.452Z,0.53
2023-03-18T22:11:55.360Z,0.56
2023-03-18T22:14:29.063Z,0.59
2023-03-18T22:16:56.986Z,0.59
2023-03-18T22:19:24.969Z,0.63
2023-03-18T22:21:54.912Z,0.65
2023-03-18T22:24:22.769Z,0.65
2023-03-18T22:26:51.458Z,0.68
2023-03-18T22:29:24.227Z,0.72
2023-03-18T22:31:52.317Z,0.75
2023-03-18T22:34:22.435Z,0.76
2023-03-18T22:36:50.695Z,0.81
2023-03-18T22:39:18.682Z,0.84
2023-03-18T22:41:46.557Z,0.88
2023-03-18T22:44:22.141Z,0.94
2023-03-18T22:46:50.228Z,0.98
2023-03-18T22:49:18.240Z,1.01
2023-03-18T22:51:46.433Z,1.06
2023-03-18T22:54:19.212Z,1.10
2023-03-18T22:56:47.083Z,1.12
2023-03-18T22:59:15.419Z,1.13
2023-03-18T23:01:43.740Z,1.16
2023-03-18T23:04:12.438Z,1.17
2023-03-18T23:06:44.184Z,1.21
2023-03-18T23:09:13.048Z,1.26
2023-03-18T23:13:29.048Z,1.35
2023-03-18T23:15:58.416Z,1.38
2023-03-18T23:18:26.622Z,1.41
2023-03-18T23:20:56.709Z,1.45
2023-03-18T23:23:25.042Z,1.48
2023-03-18T23:25:53.299Z,1.53
2023-03-18T23:28:24.323Z,1.58
2023-03-18T23:30:52.886Z,1.59
2023-03-18T23:33:20.925Z,1.62
2023-03-18T23:35:49.365Z,1.64
2023-03-18T23:38:17.360Z,1.69
2023-03-18T23:40:45.378Z,1.71
2023-03-18T23:43:13.487Z,1.73
2023-03-18T23:45:42.006Z,1.77
2023-03-18T23:48:10.145Z,1.80
2023-03-18T23:50:42.005Z,1.82
2023-03-18T23:53:10.130Z,1.84
2023-03-18T23:55:38.115Z,1.86
2023-03-18T23:58:06.398Z,1.87
